Cape Bruny Lighthouse, Australia

5:09 PM AEDT on December 04, 2016 (GMT +1100)
Alonnah - near the Pontoon | | Change Station

Elev 35 ft 43.31 °S, 147.24 °E | Updated 2 seconds ago

Clear
Clear
68.5 °F
Feels Like 68.5 °F
N
10.3
Wind Variable Wind from NE
Gusts 12.3 mph

Today
High -- | Low -- °F
--% Chance of Precip.
Yesterday
High -- | Low -- °F
Precip. -- in
Pressure 29.65 in
Visibility -9999.0 miles
Clouds
Dew Point 49 °F
Humidity 50%
Rainfall 0.00 in
Snow Depth Not available.
5:24 AM 8:38 PM
Waxing Crescent, 20% visible
METAR YMHB 040600Z 36013KT CAVOK 24/05 Q1004
Pressure 29.65 in
Visibility -9999.0 miles
Clouds
Dew Point 49 °F
Humidity 50%
Rainfall 0.00 in
Snow Depth Not available.
5:24 AM 8:38 PM
Waxing Crescent, 20% visible
METAR YMHB 040600Z 36013KT CAVOK 24/05 Q1004

10-Day Weather Forecast

×

Almanac

Astronomy

Dec. 04, 2016 Rise Set
Actual Time
Civil Twilight
Nautical Twilight
Astronomical Twilight
Moon
Length of Visible Light
Length of Day
Tomorrow will be .
, % of the Moon is Illuminated

Today's Extremes

Country Highs Country Lows

Community

WunderPhotos

Upload Photos

1,955,586 photos uploaded!

WunderBlog® & News

Nearby

Air Quality

  Air Quality AQ Index Pollutant
Not available.

Snow Depth

Station Depth Elevation

Earthquake Activity

City Distance Mag. Time & Date
Minimum magnitude displayed is 2.5.

Coastal Water Temperatures

Place Temperature

Stations

Nearby Weather Stations

Station Location Temp. Windchill Dew Point Humidity Wind Precip. Elev Updated Type